Time;durP1;ratioP1;P1;durP2;ratioP2;P2;SDS_P1;SDS_P2;PMS_P1;PMS_P2;Temp;Humidity;BMP_temperature;BMP_pressure;BME280_temperature;BME280_humidity;BME280_pressure;Samples;Min_cycle;Max_cycle;Signal;HPM_P1;HPM_P2
2022/10/06 00:00:43;;;;;;;2.87;2.50;;;;;;;11.60;100.00;101119.53;5012493;28;20200;-73
2022/10/06 00:03:09;;;;;;;5.10;2.90;;;;;;;11.61;100.00;101123.88;5016860;28;20211;-70
2022/10/06 00:05:38;;;;;;;3.77;2.10;;;;;;;11.64;100.00;101128.16;5013817;28;20213;-73
2022/10/06 00:08:04;;;;;;;3.03;2.13;;;;;;;11.64;100.00;101123.78;5018620;28;20207;-73
2022/10/06 00:10:31;;;;;;;2.43;2.23;;;;;;;11.59;100.00;101124.78;5018367;28;20212;-70
2022/10/06 00:12:58;;;;;;;5.60;2.77;;;;;;;11.59;100.00;101132.59;5018311;28;20698;-70
2022/10/06 00:15:28;;;;;;;3.47;2.80;;;;;;;11.61;100.00;101125.59;5017509;28;20203;-71
2022/10/06 00:17:55;;;;;;;3.97;2.77;;;;;;;11.66;100.00;101127.25;5017557;28;20208;-73
2022/10/06 00:20:22;;;;;;;4.00;2.57;;;;;;;11.64;100.00;101129.00;5019724;28;20590;-70
2022/10/06 00:22:51;;;;;;;3.03;2.50;;;;;;;11.66;100.00;101126.34;5013858;28;20209;-72
2022/10/06 00:25:20;;;;;;;3.83;2.97;;;;;;;11.65;100.00;101125.50;5014515;28;20200;-73
2022/10/06 00:27:48;;;;;;;4.10;2.40;;;;;;;11.68;100.00;101122.84;5017247;28;20220;-70
2022/10/06 00:30:18;;;;;;;2.93;2.50;;;;;;;11.68;100.00;101130.66;5025802;28;20216;-70
2022/10/06 00:32:52;;;;;;;3.00;2.70;;;;;;;11.67;100.00;101134.16;4997586;28;20307;-70
2022/10/06 00:35:19;;;;;;;2.73;2.53;;;;;;;11.77;100.00;101133.94;4998563;28;20269;-70
2022/10/06 00:37:48;;;;;;;3.37;2.57;;;;;;;11.86;100.00;101136.38;5015457;28;20314;-70
2022/10/06 00:40:17;;;;;;;3.37;2.83;;;;;;;11.88;100.00;101134.56;5019124;28;20501;-70
2022/10/06 00:42:56;;;;;;;4.37;2.60;;;;;;;11.85;100.00;101139.84;4998591;28;20211;-70
2022/10/06 00:45:29;;;;;;;3.23;2.57;;;;;;;11.80;100.00;101134.72;4999079;28;20217;-72
2022/10/06 00:48:01;;;;;;;2.80;2.50;;;;;;;11.78;100.00;101127.84;5004522;28;20203;-70
2022/10/06 00:50:28;;;;;;;3.43;2.70;;;;;;;11.80;100.00;101128.66;4991323;28;20248;-71
2022/10/06 00:52:55;;;;;;;3.10;2.53;;;;;;;11.80;100.00;101126.03;5005566;28;20484;-71
2022/10/06 00:55:23;;;;;;;5.23;2.50;;;;;;;11.78;100.00;101135.69;5007763;28;20207;-70
2022/10/06 00:57:51;;;;;;;2.33;2.13;;;;;;;11.82;100.00;101145.16;5020729;28;20562;-70
2022/10/06 01:00:18;;;;;;;2.70;2.50;;;;;;;11.82;100.00;101138.19;4995798;28;20226;-70
2022/10/06 01:02:48;;;;;;;3.93;2.40;;;;;;;11.83;100.00;101132.06;4996024;28;20211;-70
2022/10/06 01:05:22;;;;;;;2.33;2.13;;;;;;;11.83;100.00;101133.81;5016040;28;20196;-70
2022/10/06 01:07:49;;;;;;;3.30;2.87;;;;;;;11.89;100.00;101141.50;4997991;28;20557;-72
2022/10/06 01:10:16;;;;;;;3.77;2.13;;;;;;;12.01;100.00;101137.78;4998525;28;20774;-71
2022/10/06 01:12:43;;;;;;;2.90;2.40;;;;;;;12.06;100.00;101144.59;5003442;28;20211;-71
2022/10/06 01:15:10;;;;;;;3.33;2.47;;;;;;;12.15;100.00;101151.38;5017708;28;20254;-70
2022/10/06 01:17:42;;;;;;;3.87;2.20;;;;;;;12.22;100.00;101146.84;5008418;28;20573;-71
2022/10/06 01:20:12;;;;;;;3.03;2.17;;;;;;;12.33;100.00;101144.84;5003461;28;20265;-71
2022/10/06 01:22:43;;;;;;;3.10;2.50;;;;;;;12.38;100.00;101152.56;5007049;28;20601;-71
2022/10/06 01:25:12;;;;;;;4.27;3.17;;;;;;;12.42;100.00;101152.44;5009795;28;20195;-70
2022/10/06 01:27:42;;;;;;;4.70;2.70;;;;;;;12.44;100.00;101162.88;5001203;28;20651;-71
2022/10/06 01:30:14;;;;;;;4.70;2.70;;;;;;;12.43;100.00;101161.16;5011404;28;20215;-71
2022/10/06 01:32:40;;;;;;;3.10;2.50;;;;;;;12.46;100.00;101164.53;5011155;28;20196;-71
2022/10/06 01:35:08;;;;;;;3.40;2.63;;;;;;;12.62;100.00;101172.84;5008611;28;20286;-72
2022/10/06 01:37:35;;;;;;;3.27;2.63;;;;;;;12.61;100.00;101173.78;4998871;28;20231;-72
2022/10/06 01:40:03;;;;;;;3.57;2.57;;;;;;;12.61;100.00;101183.34;5002708;28;20759;-71
2022/10/06 01:42:31;;;;;;;3.30;2.60;;;;;;;12.70;100.00;101180.53;5019764;28;20203;-71
2022/10/06 01:44:58;;;;;;;2.60;2.40;;;;;;;12.71;100.00;101186.59;5004850;28;20200;-70
2022/10/06 01:47:24;;;;;;;2.30;2.10;;;;;;;12.66;100.00;101187.59;5000128;28;20230;-71
2022/10/06 01:49:51;;;;;;;3.57;2.37;;;;;;;12.67;100.00;101193.69;5004288;28;20215;-71
2022/10/06 01:52:18;;;;;;;2.90;2.10;;;;;;;12.63;100.00;101187.66;5000411;28;20220;-71
2022/10/06 01:54:44;;;;;;;4.77;2.37;;;;;;;12.62;100.00;101195.53;5004137;28;20205;-71
2022/10/06 01:57:12;;;;;;;2.47;2.27;;;;;;;12.57;100.00;101195.66;5011443;28;20661;-71
2022/10/06 01:59:38;;;;;;;2.97;2.43;;;;;;;12.56;100.00;101193.94;5011632;28;20200;-71
2022/10/06 02:02:04;;;;;;;2.70;2.10;;;;;;;12.57;100.00;101192.19;5002416;28;20208;-71
2022/10/06 02:04:31;;;;;;;2.80;2.27;;;;;;;12.56;100.00;101198.31;5000222;28;20240;-71
2022/10/06 02:06:58;;;;;;;2.63;2.03;;;;;;;12.52;100.00;101210.59;5001499;28;20224;-71
2022/10/06 02:09:24;;;;;;;2.53;2.10;;;;;;;12.49;100.00;101215.94;5012798;28;20209;-71
2022/10/06 02:11:53;;;;;;;2.30;2.10;;;;;;;12.44;100.00;101210.81;5002544;28;20296;-71
2022/10/06 02:14:21;;;;;;;3.80;2.70;;;;;;;12.38;100.00;101213.56;5027643;28;20200;-71
2022/10/06 02:16:47;;;;;;;6.07;2.50;;;;;;;12.38;100.00;101213.56;5006091;28;20216;-72
2022/10/06 02:19:14;;;;;;;2.67;1.90;;;;;;;12.32;100.00;101218.94;5004600;28;20205;-72
2022/10/06 02:21:40;;;;;;;3.83;2.23;;;;;;;12.31;100.00;101210.25;5008384;28;20212;-71
2022/10/06 02:24:09;;;;;;;2.10;1.77;;;;;;;12.28;100.00;101204.22;5019577;28;20240;-71
2022/10/06 02:26:36;;;;;;;2.13;1.93;;;;;;;12.30;100.00;101194.59;5001455;28;20701;-71
2022/10/06 02:29:02;;;;;;;3.50;2.27;;;;;;;12.27;100.00;101212.97;5023672;28;20585;-71
2022/10/06 02:31:30;;;;;;;2.57;2.13;;;;;;;12.30;100.00;101207.66;5017715;28;20728;-71
2022/10/06 02:33:58;;;;;;;4.40;2.17;;;;;;;12.34;100.00;101213.69;4995530;28;20572;-71
2022/10/06 02:36:24;;;;;;;4.67;2.30;;;;;;;12.34;100.00;101200.59;4997975;28;20219;-72
2022/10/06 02:38:51;;;;;;;2.87;2.17;;;;;;;12.37;100.00;101211.84;5006734;28;20210;-71
2022/10/06 02:41:18;;;;;;;5.50;2.80;;;;;;;12.45;100.00;101222.09;5010851;28;20204;-71
2022/10/06 02:43:46;;;;;;;4.73;2.50;;;;;;;12.47;100.00;101220.31;5005123;28;20552;-71
2022/10/06 02:46:14;;;;;;;3.80;2.50;;;;;;;12.58;100.00;101228.78;5016307;28;20219;-71
2022/10/06 02:48:48;;;;;;;3.70;2.20;;;;;;;12.62;100.00;101229.56;5002923;28;20572;-71
2022/10/06 02:51:16;;;;;;;3.20;2.37;;;;;;;12.72;100.00;101230.16;5009605;28;20216;-72
2022/10/06 02:53:45;;;;;;;2.43;2.20;;;;;;;12.81;100.00;101235.19;5004073;28;20590;-71
2022/10/06 02:56:15;;;;;;;4.93;2.57;;;;;;;12.87;100.00;101246.34;4999782;28;20694;-72
2022/10/06 02:58:43;;;;;;;2.60;2.40;;;;;;;13.03;100.00;101240.69;5004172;28;20279;-71
2022/10/06 03:01:15;;;;;;;2.60;2.10;;;;;;;12.99;100.00;101224.22;4996406;28;20741;-71
2022/10/06 03:03:41;;;;;;;4.33;2.40;;;;;;;13.00;100.00;101231.19;5002976;28;20293;-71
2022/10/06 03:06:21;;;;;;;3.03;2.50;;;;;;;12.99;100.00;101228.59;5003692;28;20223;-72
2022/10/06 03:08:54;;;;;;;2.37;2.17;;;;;;;13.02;100.00;101237.22;4996434;28;20208;-71
2022/10/06 03:11:22;;;;;;;5.70;2.20;;;;;;;12.95;100.00;101240.91;4998222;28;20477;-71
2022/10/06 03:13:50;;;;;;;2.20;2.00;;;;;;;12.92;100.00;101250.59;5005296;28;20561;-71
2022/10/06 03:16:18;;;;;;;1.73;1.53;;;;;;;12.91;100.00;101252.38;4998011;28;20412;-72
2022/10/06 03:18:45;;;;;;;3.00;1.93;;;;;;;12.88;100.00;101260.28;4997996;28;20234;-72
2022/10/06 03:21:14;;;;;;;2.33;2.13;;;;;;;12.90;100.00;101261.13;4997926;28;20611;-71
2022/10/06 03:23:41;;;;;;;2.97;2.20;;;;;;;12.91;100.00;101273.31;4982839;28;20545;-71
2022/10/06 03:26:08;;;;;;;2.63;2.30;;;;;;;12.89;100.00;101267.22;4987596;28;20312;-71
2022/10/06 03:28:34;;;;;;;2.50;2.23;;;;;;;12.85;100.00;101266.44;4986007;28;20199;-71
2022/10/06 03:31:02;;;;;;;4.07;2.30;;;;;;;12.83;100.00;101276.09;4984060;28;20403;-72
2022/10/06 03:33:30;;;;;;;2.47;2.23;;;;;;;12.76;100.00;101276.31;4983819;28;20289;-72
2022/10/06 03:36:02;;;;;;;3.43;2.30;;;;;;;12.75;100.00;101293.78;4983503;28;20668;-72
2022/10/06 03:38:32;;;;;;;3.23;2.10;;;;;;;12.77;100.00;101284.13;4976854;28;20207;-72
2022/10/06 03:41:03;;;;;;;1.90;1.77;;;;;;;12.76;100.00;101285.00;4973990;28;20210;-72
2022/10/06 03:43:33;;;;;;;2.53;1.90;;;;;;;12.72;100.00;101291.22;5003670;28;20272;-71
2022/10/06 03:46:00;;;;;;;2.70;2.10;;;;;;;12.68;100.00;101295.66;4979531;28;20224;-72
2022/10/06 03:48:29;;;;;;;3.17;1.93;;;;;;;12.64;100.00;101293.16;4981317;28;20229;-72
2022/10/06 03:50:56;;;;;;;3.70;2.00;;;;;;;12.57;100.00;101287.19;4986242;28;20281;-71
2022/10/06 03:53:26;;;;;;;4.93;2.50;;;;;;;12.54;100.00;101289.91;4986640;28;20210;-71
2022/10/06 03:56:00;;;;;;;4.03;2.30;;;;;;;12.52;100.00;101289.06;5000015;28;20224;-72
2022/10/06 03:58:27;;;;;;;2.70;2.50;;;;;;;12.56;100.00;101290.72;4984920;28;20292;-71
2022/10/06 04:00:59;;;;;;;2.40;2.10;;;;;;;12.54;100.00;101286.41;4984341;28;20204;-72
2022/10/06 04:03:26;;;;;;;3.67;2.37;;;;;;;12.54;100.00;101297.75;4985848;28;20197;-71
2022/10/06 04:05:54;;;;;;;4.37;1.87;;;;;;;12.53;100.00;101309.09;5002178;28;20230;-71
2022/10/06 04:08:20;;;;;;;3.03;1.90;;;;;;;12.50;100.00;101307.44;4987043;28;20204;-72
2022/10/06 04:10:47;;;;;;;2.37;2.17;;;;;;;12.51;100.00;101323.97;4984147;28;20376;-72
2022/10/06 04:13:16;;;;;;;2.20;2.00;;;;;;;12.55;100.00;101322.16;4983987;28;20632;-71
2022/10/06 04:15:43;;;;;;;4.60;1.93;;;;;;;12.54;100.00;101323.91;4977738;28;20201;-72
2022/10/06 04:18:10;;;;;;;2.53;2.20;;;;;;;12.55;100.00;101325.63;4988199;28;20224;-71
2022/10/06 04:20:36;;;;;;;3.73;2.23;;;;;;;12.64;100.00;101330.63;4985666;28;20201;-72
2022/10/06 04:23:05;;;;;;;2.33;2.00;;;;;;;12.74;100.00;101328.66;5001563;28;20218;-72
2022/10/06 04:25:31;;;;;;;2.47;2.10;;;;;;;12.77;100.00;101327.72;4998531;28;20201;-72
2022/10/06 04:27:58;;;;;;;2.47;1.87;;;;;;;12.85;100.00;101331.88;5003722;28;20196;-71
2022/10/06 04:30:26;;;;;;;4.10;2.10;;;;;;;12.98;100.00;101334.19;4997637;28;20221;-71
2022/10/06 04:32:54;;;;;;;3.77;2.50;;;;;;;12.98;100.00;101336.81;5002510;28;20208;-71
2022/10/06 04:35:20;;;;;;;2.60;2.23;;;;;;;13.01;100.00;101342.81;5004122;28;20201;-72
2022/10/06 04:37:47;;;;;;;2.20;2.00;;;;;;;13.10;100.00;101351.34;5007862;28;20270;-71
2022/10/06 04:40:13;;;;;;;2.70;2.17;;;;;;;13.17;100.00;101348.53;5006062;28;20196;-71
2022/10/06 04:42:40;;;;;;;2.03;1.93;;;;;;;13.28;100.00;101356.13;5022430;28;20286;-71
2022/10/06 04:45:11;;;;;;;3.07;2.03;;;;;;;13.38;100.00;101355.00;5005919;28;20209;-71
2022/10/06 04:47:40;;;;;;;3.00;2.50;;;;;;;13.49;100.00;101346.91;5002795;28;20333;-71
2022/10/06 04:50:08;;;;;;;2.53;2.20;;;;;;;13.52;100.00;101348.56;5001089;28;20214;-72
2022/10/06 04:52:34;;;;;;;2.20;2.00;;;;;;;13.51;100.00;101355.56;4997173;28;20670;-72
2022/10/06 04:55:03;;;;;;;2.10;1.90;;;;;;;13.48;100.00;101358.25;5002857;28;20693;-71
2022/10/06 04:57:29;;;;;;;2.20;1.80;;;;;;;13.46;100.00;101364.47;5003885;28;20654;-72
2022/10/06 05:02:41;;;;;;;2.20;1.90;;;;;;;13.54;100.00;101370.31;4999197;28;20198;-72
2022/10/06 05:05:07;;;;;;;2.17;1.70;;;;;;;13.58;100.00;101383.31;5019009;28;20207;-72
2022/10/06 05:07:34;;;;;;;2.23;1.73;;;;;;;13.68;100.00;101385.69;5018113;28;20311;-71
2022/10/06 05:10:00;;;;;;;2.40;1.70;;;;;;;13.77;100.00;101385.44;4999872;28;20309;-72
2022/10/06 05:12:29;;;;;;;3.23;1.93;;;;;;;13.79;100.00;101397.59;4996353;28;20285;-72
2022/10/06 05:14:55;;;;;;;2.57;1.77;;;;;;;13.82;100.00;101410.63;4999210;28;20202;-72
2022/10/06 05:17:22;;;;;;;1.97;1.80;;;;;;;13.90;100.00;101418.28;4996720;28;20832;-73
2022/10/06 05:19:49;;;;;;;2.57;1.90;;;;;;;14.02;100.00;101435.44;5000654;28;20210;-73
2022/10/06 05:22:16;;;;;;;1.77;1.53;;;;;;;14.04;100.00;101423.16;5018045;28;20215;-72
2022/10/06 05:24:42;;;;;;;2.37;1.93;;;;;;;14.07;100.00;101435.28;5001540;28;20278;-72
2022/10/06 05:27:09;;;;;;;2.00;1.80;;;;;;;14.13;100.00;101441.22;5002073;28;20223;-71
2022/10/06 05:29:35;;;;;;;1.80;1.50;;;;;;;14.19;100.00;101446.31;4997926;28;20490;-71
2022/10/06 05:32:04;;;;;;;2.37;1.80;;;;;;;14.26;100.00;101456.63;4995342;28;20207;-72
2022/10/06 05:34:31;;;;;;;2.00;1.80;;;;;;;14.30;100.00;101463.50;4996323;28;20247;-71
2022/10/06 05:36:59;;;;;;;1.83;1.60;;;;;;;14.38;100.00;101464.16;4999099;28;20237;-72
2022/10/06 05:39:26;;;;;;;2.07;1.50;;;;;;;14.41;100.00;101474.56;5000647;28;20244;-73
2022/10/06 05:41:56;;;;;;;3.77;2.13;;;;;;;14.48;100.00;101483.97;5000426;28;20199;-73
2022/10/06 05:44:23;;;;;;;1.90;1.67;;;;;;;14.52;100.00;101503.09;5001900;28;20204;-71
2022/10/06 05:46:50;;;;;;;3.77;1.90;;;;;;;14.54;100.00;101507.41;4994869;28;20219;-74
2022/10/06 05:49:17;;;;;;;2.43;1.77;;;;;;;14.52;100.00;101522.31;5004436;28;20661;-71
2022/10/06 05:52:05;;;;;;;2.30;1.50;;;;;;;14.38;100.00;101532.34;5003485;28;20225;-71
2022/10/06 05:54:33;;;;;;;1.50;1.33;;;;;;;14.17;100.00;101550.38;5000704;28;20230;-71
2022/10/06 05:57:00;;;;;;;2.30;1.60;;;;;;;14.05;100.00;101541.97;5001320;28;20326;-71
2022/10/06 05:59:26;;;;;;;2.37;1.40;;;;;;;13.92;100.00;101531.81;4999784;28;20207;-71
2022/10/06 06:01:54;;;;;;;2.60;1.23;;;;;;;13.87;100.00;101538.06;5001020;28;20235;-71
2022/10/06 06:04:41;;;;;;;1.10;1.00;;;;;;;13.84;100.00;101552.09;5018806;28;20211;-71
2022/10/06 06:07:09;;;;;;;1.27;1.17;;;;;;;13.80;100.00;101556.56;5002543;28;20227;-71
2022/10/06 06:09:36;;;;;;;1.20;1.10;;;;;;;13.73;100.00;101569.88;5005606;28;20197;-71
2022/10/06 06:12:04;;;;;;;1.40;1.30;;;;;;;13.73;100.00;101573.34;5018121;28;20236;-71
2022/10/06 06:17:45;;;;;;;0.70;0.70;;;;;;;13.75;100.00;101591.66;4997204;28;20231;-71
2022/10/06 06:20:12;;;;;;;1.37;0.70;;;;;;;13.75;100.00;101600.38;5001527;28;20703;-71
2022/10/06 06:22:40;;;;;;;1.97;0.90;;;;;;;13.74;100.00;101611.78;4999591;28;20697;-71
2022/10/06 06:25:07;;;;;;;0.80;0.80;;;;;;;13.76;100.00;101625.69;5000736;28;20674;-71
2022/10/06 06:27:34;;;;;;;4.83;0.90;;;;;;;13.74;100.00;101640.59;4999171;28;20317;-72
2022/10/06 06:30:02;;;;;;;1.07;0.90;;;;;;;13.75;100.00;101650.16;5008369;28;20207;-71
2022/10/06 06:32:30;;;;;;;0.90;0.70;;;;;;;13.79;100.00;101669.31;5024262;28;20211;-71
2022/10/06 06:34:57;;;;;;;3.57;0.80;;;;;;;13.78;100.00;101676.31;5004105;28;20234;-71
2022/10/06 06:37:25;;;;;;;1.00;0.80;;;;;;;13.79;100.00;101675.44;5016380;28;20289;-72
2022/10/06 06:39:52;;;;;;;0.80;0.70;;;;;;;13.73;100.00;101688.66;4999371;28;20337;-70
2022/10/06 06:42:20;;;;;;;0.60;0.60;;;;;;;13.65;100.00;101690.63;4999439;28;20512;-71
2022/10/06 06:44:47;;;;;;;0.73;0.63;;;;;;;13.55;100.00;101689.94;5013131;28;20210;-70
2022/10/06 06:47:38;;;;;;;0.53;0.53;;;;;;;13.48;100.00;101684.88;5002732;28;20223;-71
2022/10/06 06:50:09;;;;;;;0.57;0.50;;;;;;;13.42;100.00;101691.06;5010274;28;20229;-71
2022/10/06 06:52:36;;;;;;;0.70;0.70;;;;;;;13.42;100.00;101691.06;5015090;28;20293;-71
2022/10/06 06:55:05;;;;;;;1.20;0.80;;;;;;;13.44;100.00;101703.25;5005025;28;20554;-71
2022/10/06 06:57:32;;;;;;;0.57;0.57;;;;;;;13.46;100.00;101705.00;5006738;28;20218;-71
2022/10/06 07:00:04;;;;;;;0.60;0.60;;;;;;;13.50;100.00;101697.03;4994781;28;20200;-71
2022/10/06 07:02:32;;;;;;;0.67;0.57;;;;;;;13.54;100.00;101695.19;5005626;28;20266;-71
2022/10/06 07:04:59;;;;;;;0.80;0.70;;;;;;;13.59;100.00;101694.19;5004836;28;20771;-71
2022/10/06 07:07:26;;;;;;;0.60;0.60;;;;;;;13.61;100.00;101702.91;5003295;28;20321;-71
2022/10/06 07:09:52;;;;;;;1.80;0.83;;;;;;;13.60;100.00;101708.19;5002088;28;20215;-71
2022/10/06 07:12:24;;;;;;;3.80;0.90;;;;;;;13.62;100.00;101716.88;5003608;28;20317;-73
2022/10/06 07:26:01;;;;;;;0.20;0.20;;;;;;;13.57;100.00;101760.66;5000758;28;20232;-71
2022/10/06 07:28:30;;;;;;;0.37;0.37;;;;;;;13.62;100.00;101771.91;5004100;28;20211;-72
2022/10/06 07:30:58;;;;;;;0.40;0.40;;;;;;;13.68;100.00;101765.66;4999864;28;20317;-72
2022/10/06 07:33:27;;;;;;;1.40;0.37;;;;;;;13.73;100.00;101774.28;4998953;28;20192;-72
2022/10/06 07:35:53;;;;;;;0.40;0.40;;;;;;;13.80;100.00;101770.66;5000339;28;20225;-72
2022/10/06 07:38:24;;;;;;;0.40;0.30;;;;;;;13.82;100.00;101781.97;5005838;28;20570;-70
2022/10/06 07:40:55;;;;;;;0.67;0.60;;;;;;;13.85;100.00;101796.78;5004156;28;20278;-72
2022/10/06 07:43:22;;;;;;;0.20;0.20;;;;;;;13.91;100.00;101801.88;4998761;28;20215;-72
2022/10/06 07:45:51;;;;;;;0.97;0.30;;;;;;;13.98;100.00;101798.22;5009275;28;20290;-71
2022/10/06 07:48:31;;;;;;;1.07;0.60;;;;;;;14.06;100.00;101804.16;5003233;28;20192;-72
2022/10/06 07:51:05;;;;;;;0.60;0.50;;;;;;;14.13;100.00;101818.00;5001256;28;20216;-72
2022/10/06 07:53:36;;;;;;;2.57;0.90;;;;;;;14.24;100.00;101813.38;5002636;28;20669;-72
2022/10/06 07:56:14;;;;;;;0.80;0.60;;;;;;;14.36;100.00;101825.38;4999477;28;20708;-72
2022/10/06 07:58:44;;;;;;;0.73;0.50;;;;;;;14.44;100.00;101822.56;4996340;28;20207;-72
2022/10/06 08:01:14;;;;;;;0.30;0.30;;;;;;;14.44;100.00;101833.94;5019394;28;20196;-72
2022/10/06 08:03:42;;;;;;;0.80;0.50;;;;;;;14.49;100.00;101841.69;5022903;28;20208;-71
2022/10/06 08:06:15;;;;;;;0.93;0.37;;;;;;;14.52;100.00;101846.88;5031107;23;20220;-74
2022/10/06 08:12:31;;;;;;;0.60;0.40;;;;;;;14.59;100.00;101858.97;4955385;28;20256;-72
2022/10/06 08:14:50;;;;;;;0.97;0.50;;;;;;;14.55;100.00;101867.78;4955895;28;20205;-73
2022/10/06 08:17:18;;;;;;;0.40;0.40;;;;;;;14.52;100.00;101870.47;4978122;28;20309;-73
2022/10/06 08:19:46;;;;;;;3.27;0.40;;;;;;;14.51;100.00;101877.50;4963425;28;20717;-73
2022/10/06 08:22:14;;;;;;;0.73;0.50;;;;;;;14.55;100.00;101873.03;4970325;28;20204;-73
2022/10/06 08:24:43;;;;;;;1.03;0.57;;;;;;;14.71;100.00;101882.31;4965330;28;20225;-71
2022/10/06 08:27:09;;;;;;;1.10;0.60;;;;;;;14.75;100.00;101898.84;4984450;28;20811;-74
2022/10/06 08:29:36;;;;;;;1.30;0.70;;;;;;;14.83;100.00;101903.91;4984611;28;20206;-74
2022/10/06 08:32:03;;;;;;;1.03;0.47;;;;;;;14.86;100.00;101899.47;4971234;28;20218;-73
2022/10/06 08:34:31;;;;;;;0.60;0.60;;;;;;;14.92;100.00;101914.22;4983765;28;20200;-73
2022/10/06 08:36:57;;;;;;;1.47;0.40;;;;;;;14.90;100.00;101903.75;4968896;28;20301;-74
2022/10/06 08:39:24;;;;;;;0.97;0.70;;;;;;;14.94;100.00;101907.16;4977039;28;20261;-73
2022/10/06 08:41:53;;;;;;;0.87;0.30;;;;;;;14.91;100.00;101921.22;4969174;28;20221;-74
2022/10/06 08:44:29;;;;;;;0.50;0.50;;;;;;;14.92;100.00;101919.47;4960998;28;20202;-74
2022/10/06 08:46:59;;;;;;;0.50;0.47;;;;;;;14.90;100.00;101926.53;4983463;28;20264;-74
2022/10/06 08:49:32;;;;;;;1.50;0.40;;;;;;;14.89;100.00;101930.91;4959648;28;20205;-74
2022/10/06 08:52:08;;;;;;;2.10;0.67;;;;;;;14.85;100.00;101933.66;4966880;28;20230;-72
2022/10/06 08:54:41;;;;;;;0.70;0.40;;;;;;;14.82;100.00;101933.72;4968506;28;20201;-73
2022/10/06 08:57:17;;;;;;;0.67;0.40;;;;;;;14.81;100.00;101939.84;4984991;28;20217;-71
2022/10/06 08:59:47;;;;;;;0.33;0.30;;;;;;;14.76;100.00;101934.72;4988254;28;20209;-74
2022/10/06 09:02:26;;;;;;;0.70;0.50;;;;;;;14.68;100.00;101937.50;4962703;28;20226;-73
2022/10/06 09:04:52;;;;;;;1.50;0.60;;;;;;;14.71;100.00;101940.06;4984971;28;20212;-74
2022/10/06 09:07:27;;;;;;;0.77;0.27;;;;;;;14.88;100.00;101942.31;4964315;28;20239;-72
2022/10/06 09:10:14;;;;;;;2.13;0.80;;;;;;;15.09;100.00;101955.81;4974288;28;20208;-73
2022/10/06 09:12:45;;;;;;;0.50;0.33;;;;;;;15.31;100.00;101953.53;4988085;28;20205;-74
2022/10/06 09:15:28;;;;;;;1.07;0.50;;;;;;;15.54;100.00;101950.31;4979158;28;20208;-74
2022/10/06 09:18:01;;;;;;;1.00;0.47;;;;;;;15.59;100.00;101966.84;4983767;28;20319;-74
2022/10/06 09:20:33;;;;;;;1.13;0.50;;;;;;;15.65;100.00;101960.56;4973500;28;20205;-74
2022/10/06 09:23:05;;;;;;;0.60;0.40;;;;;;;15.56;100.00;101971.31;4973566;28;20260;-74
2022/10/06 09:25:33;;;;;;;0.40;0.30;;;;;;;15.46;100.00;101971.56;4987291;28;20300;-74
2022/10/06 09:28:02;;;;;;;3.13;0.60;;;;;;;15.45;100.00;101971.59;4967419;28;20239;-73
2022/10/06 09:30:28;;;;;;;1.50;0.70;;;;;;;15.52;100.00;101975.78;4976061;28;20194;-71
2022/10/06 09:32:58;;;;;;;0.40;0.40;;;;;;;15.55;100.00;101974.84;4978171;28;20217;-74
2022/10/06 09:35:27;;;;;;;0.43;0.43;;;;;;;15.54;100.00;101992.38;4982300;28;20240;-74
2022/10/06 09:37:56;;;;;;;0.77;0.40;;;;;;;15.64;100.00;101986.00;4988155;28;20754;-74
2022/10/06 09:40:40;;;;;;;1.50;0.50;;;;;;;15.73;100.00;102003.31;4963732;28;20229;-74
2022/10/06 09:43:19;;;;;;;1.17;0.60;;;;;;;15.66;100.00;102001.75;4971538;28;20197;-72
2022/10/06 09:45:45;;;;;;;1.07;0.50;;;;;;;15.62;100.00;102000.06;4979109;28;20587;-74
2022/10/06 09:48:19;;;;;;;1.13;0.60;;;;;;;15.51;100.00;102002.97;4984317;28;20249;-73
2022/10/06 09:51:07;;;;;;;0.80;0.50;;;;;;;15.42;100.00;102011.94;4978611;28;20296;-74
2022/10/06 09:53:34;;;;;;;3.47;0.50;;;;;;;15.38;100.00;102019.97;4967359;28;20210;-72
2022/10/06 09:56:03;;;;;;;0.93;0.60;;;;;;;15.22;100.00;102020.31;4985576;28;20238;-74
2022/10/06 09:58:33;;;;;;;2.70;0.60;;;;;;;15.33;100.00;102020.91;4984229;28;20202;-73
2022/10/06 10:01:02;;;;;;;1.17;0.60;;;;;;;15.33;100.00;102017.44;4966804;28;20764;-74
2022/10/06 10:03:46;;;;;;;0.57;0.50;;;;;;;15.19;100.00;102022.16;4966529;28;20201;-74
2022/10/06 10:06:22;;;;;;;0.90;0.43;;;;;;;15.07;100.00;102018.88;4966166;28;20253;-74
2022/10/06 10:08:49;;;;;;;0.43;0.43;;;;;;;15.04;100.00;102039.09;4981977;28;20635;-74
2022/10/06 10:14:16;;;;;;;2.03;0.60;;;;;;;15.33;100.00;102044.56;4974395;28;20204;-73
2022/10/06 10:16:44;;;;;;;3.03;0.60;;;;;;;15.29;100.00;102045.53;4969079;28;20221;-73
2022/10/06 10:19:22;;;;;;;0.93;0.80;;;;;;;15.17;100.00;102037.94;4971253;28;20228;-73
2022/10/06 10:21:49;;;;;;;2.33;0.90;;;;;;;15.19;100.00;102035.28;4976870;28;20193;-73
2022/10/06 10:24:22;;;;;;;0.70;0.63;;;;;;;15.21;100.00;102042.22;4970287;28;20686;-72
2022/10/06 10:26:56;;;;;;;2.03;0.97;;;;;;;15.27;100.00;102042.09;4965300;28;20217;-73
2022/10/06 10:29:37;;;;;;;1.20;0.50;;;;;;;15.51;100.00;102051.16;4959944;28;20217;-73
2022/10/06 10:32:16;;;;;;;1.27;0.70;;;;;;;15.86;100.00;102061.72;4961573;28;20217;-73
2022/10/06 10:34:59;;;;;;;0.57;0.43;;;;;;;16.07;100.00;102060.31;4964977;28;20208;-72
2022/10/06 10:37:33;;;;;;;0.57;0.50;;;;;;;16.16;100.00;102065.31;4971950;28;20267;-73
2022/10/06 10:40:07;;;;;;;1.60;0.70;;;;;;;16.24;100.00;102071.25;4968142;28;20296;-72
2022/10/06 10:42:40;;;;;;;1.97;0.60;;;;;;;16.00;98.07;102071.91;4967922;28;20198;-73
2022/10/06 10:45:17;;;;;;;1.40;0.53;;;;;;;15.81;90.66;102077.63;4972009;28;20213;-74
2022/10/06 10:47:47;;;;;;;0.53;0.50;;;;;;;15.63;92.05;102075.41;4982747;28;20213;-72
2022/10/06 10:50:24;;;;;;;0.40;0.40;;;;;;;15.62;93.54;102077.19;4962338;28;20308;-73
2022/10/06 10:52:54;;;;;;;1.37;0.70;;;;;;;15.55;96.10;102080.88;4969890;28;20578;-72
2022/10/06 10:55:27;;;;;;;2.60;0.60;;;;;;;15.47;96.52;102070.53;4967677;28;20214;-72
2022/10/06 10:57:58;;;;;;;2.17;0.93;;;;;;;15.42;100.00;102068.91;4969138;28;20327;-72
2022/10/06 11:00:27;;;;;;;2.07;0.60;;;;;;;15.41;96.19;102075.03;4972715;28;20537;-72
2022/10/06 11:02:57;;;;;;;2.60;0.80;;;;;;;15.34;92.50;102069.94;4989501;28;20685;-72
2022/10/06 11:05:39;;;;;;;0.63;0.50;;;;;;;15.40;92.85;102068.09;4961501;28;20713;-72
2022/10/06 11:08:11;;;;;;;1.90;0.60;;;;;;;15.71;93.14;102071.69;4978838;28;20582;-72
2022/10/06 11:10:45;;;;;;;0.97;0.60;;;;;;;16.01;93.13;102066.59;4958944;28;20216;-72
2022/10/06 11:13:22;;;;;;;1.37;0.50;;;;;;;16.17;92.01;102061.78;4970947;28;20213;-72
2022/10/06 11:16:16;;;;;;;0.77;0.57;;;;;;;16.17;85.18;102077.59;4963822;28;20256;-72
2022/10/06 11:19:04;;;;;;;0.80;0.70;;;;;;;16.27;87.19;102068.53;4963856;28;20235;-71
2022/10/06 11:21:36;;;;;;;1.03;0.33;;;;;;;16.40;86.30;102069.06;4976556;28;20210;-72
2022/10/06 11:24:14;;;;;;;0.63;0.47;;;;;;;16.22;82.67;102080.97;4979822;28;20239;-73
2022/10/06 11:26:53;;;;;;;1.17;0.50;;;;;;;16.04;81.10;102084.06;4965678;28;20233;-74
2022/10/06 11:29:32;;;;;;;1.27;0.73;;;;;;;16.07;80.13;102081.34;4958728;28;20499;-72
2022/10/06 11:32:11;;;;;;;1.03;0.50;;;;;;;16.08;79.05;102081.31;4966326;28;20757;-72
2022/10/06 11:34:39;;;;;;;0.40;0.40;;;;;;;16.08;80.47;102086.59;4970035;28;20211;-71
2022/10/06 11:37:18;;;;;;;1.23;0.60;;;;;;;16.15;78.13;102087.28;4971348;28;20225;-73
2022/10/06 11:39:53;;;;;;;0.57;0.47;;;;;;;15.89;77.91;102088.81;4976508;28;20628;-72
2022/10/06 11:42:25;;;;;;;0.77;0.60;;;;;;;15.88;79.91;102088.84;4971536;28;20243;-72
2022/10/06 11:44:59;;;;;;;3.47;0.70;;;;;;;16.03;79.16;102083.19;4980695;28;20206;-72
2022/10/06 11:47:32;;;;;;;2.10;0.30;;;;;;;16.20;79.17;102082.78;4963695;28;20324;-72
2022/10/06 11:49:58;;;;;;;1.90;0.70;;;;;;;16.35;79.06;102080.63;4987250;28;20215;-72
2022/10/06 11:52:36;;;;;;;2.73;0.60;;;;;;;16.46;78.86;102083.81;4971234;28;20709;-71